createdAt,value
2019-01-08T00:02:25.257Z,99.90
2019-01-08T00:04:55.654Z,99.90
2019-01-08T00:07:25.857Z,99.90
2019-01-08T00:09:56.112Z,99.90
2019-01-08T00:12:26.435Z,99.90
2019-01-08T00:14:56.708Z,99.90
2019-01-08T00:17:26.913Z,99.90
2019-01-08T00:19:57.097Z,99.90
2019-01-08T00:22:27.314Z,99.90
2019-01-08T00:24:57.462Z,99.90
2019-01-08T00:27:27.828Z,99.90
2019-01-08T00:29:58.022Z,99.90
2019-01-08T00:32:28.345Z,99.90
2019-01-08T00:34:58.666Z,99.90
2019-01-08T00:37:28.873Z,99.90
2019-01-08T00:39:59.098Z,99.90
2019-01-08T00:42:29.336Z,99.90
2019-01-08T00:44:59.523Z,99.90
2019-01-08T00:47:29.890Z,99.90
2019-01-08T00:50:00.102Z,99.90
2019-01-08T00:52:30.523Z,99.90
2019-01-08T00:55:00.822Z,99.90
2019-01-08T00:57:31.219Z,99.90
2019-01-08T01:00:01.401Z,99.90
2019-01-08T01:02:31.562Z,99.90
2019-01-08T01:05:01.780Z,99.90
2019-01-08T01:07:31.923Z,99.90
2019-01-08T01:10:02.382Z,99.90
2019-01-08T01:12:32.501Z,99.90
2019-01-08T01:15:03.316Z,99.90
2019-01-08T01:17:33.498Z,99.90
2019-01-08T01:20:03.965Z,99.90
2019-01-08T01:22:34.142Z,99.90
2019-01-08T01:25:04.480Z,99.90
2019-01-08T01:27:34.677Z,99.90
2019-01-08T01:30:07.869Z,99.90
2019-01-08T01:32:38.184Z,99.90
2019-01-08T01:35:08.461Z,99.90
2019-01-08T01:37:38.667Z,99.90
2019-01-08T01:40:08.956Z,99.90
2019-01-08T01:42:39.344Z,99.90
2019-01-08T01:45:09.451Z,99.90
2019-01-08T01:47:39.752Z,99.90
2019-01-08T01:50:10.161Z,99.90
2019-01-08T01:52:40.311Z,99.90
2019-01-08T01:55:10.733Z,99.90
2019-01-08T01:57:40.932Z,99.90
2019-01-08T02:00:11.177Z,99.90
2019-01-08T02:02:41.415Z,99.90
2019-01-08T02:05:11.617Z,99.90
2019-01-08T02:07:42.017Z,99.90
2019-01-08T02:10:12.271Z,99.90
2019-01-08T02:12:42.501Z,99.90
2019-01-08T02:15:12.652Z,99.90
2019-01-08T02:17:42.948Z,99.90
2019-01-08T02:20:13.080Z,99.90
2019-01-08T02:22:43.473Z,99.90
2019-01-08T02:25:13.611Z,99.90
2019-01-08T02:27:44.109Z,99.90
2019-01-08T02:30:14.503Z,99.90
2019-01-08T02:32:44.795Z,99.90
2019-01-08T02:35:15.070Z,99.90
2019-01-08T02:37:45.202Z,99.90
2019-01-08T02:40:15.432Z,99.90
2019-01-08T02:42:45.648Z,99.90
2019-01-08T02:45:15.946Z,99.90
2019-01-08T02:47:46.118Z,99.90
2019-01-08T02:50:16.352Z,99.90
2019-01-08T02:52:46.814Z,99.90
2019-01-08T02:55:17.049Z,99.90
2019-01-08T02:57:47.442Z,99.90
2019-01-08T03:00:17.682Z,99.90
2019-01-08T03:02:48.037Z,99.90
2019-01-08T03:05:18.443Z,99.90
2019-01-08T03:07:48.741Z,99.90
2019-01-08T03:10:19.199Z,99.90
2019-01-08T03:12:49.412Z,99.90
2019-01-08T03:15:19.619Z,99.90
2019-01-08T03:17:49.819Z,99.90
2019-01-08T03:20:20.020Z,99.90
2019-01-08T03:22:50.406Z,99.90
2019-01-08T03:25:20.695Z,99.90
2019-01-08T03:27:50.910Z,99.90
2019-01-08T03:30:21.212Z,99.90
2019-01-08T03:32:51.532Z,99.90
2019-01-08T03:35:21.812Z,99.90
2019-01-08T03:37:52.213Z,99.90
2019-01-08T03:40:22.539Z,99.90
2019-01-08T03:42:54.191Z,99.90
2019-01-08T03:45:24.387Z,99.90
2019-01-08T03:47:54.689Z,99.90
2019-01-08T03:50:24.810Z,99.90
2019-01-08T03:52:55.311Z,99.90
2019-01-08T03:55:25.589Z,99.90
2019-01-08T03:57:55.921Z,99.90
2019-01-08T04:00:26.021Z,99.90
2019-01-08T04:02:56.197Z,99.90
2019-01-08T04:05:26.429Z,99.90
2019-01-08T04:07:56.709Z,99.90
2019-01-08T04:10:26.995Z,99.90
2019-01-08T04:12:58.796Z,99.90
2019-01-08T04:15:28.968Z,99.90
2019-01-08T04:17:59.698Z,99.90
2019-01-08T04:20:29.932Z,99.90
2019-01-08T04:23:00.211Z,99.90
2019-01-08T04:25:30.371Z,99.90
2019-01-08T04:28:00.562Z,99.90
2019-01-08T04:30:30.919Z,99.90
2019-01-08T04:33:01.096Z,99.90
2019-01-08T04:35:31.453Z,99.90
2019-01-08T04:38:01.680Z,99.90
2019-01-08T04:40:31.825Z,99.90
2019-01-08T04:43:02.219Z,99.90
2019-01-08T04:45:44.755Z,99.90
2019-01-08T04:48:14.920Z,99.90
2019-01-08T04:50:45.059Z,99.90
2019-01-08T04:53:15.233Z,99.90
2019-01-08T04:55:45.418Z,99.90
2019-01-08T04:58:15.764Z,99.90
2019-01-08T05:00:45.949Z,99.90
2019-01-08T05:03:16.156Z,99.90
2019-01-08T05:05:46.405Z,99.90
2019-01-08T05:08:16.621Z,99.90
2019-01-08T05:10:46.782Z,99.90
2019-01-08T05:13:17.105Z,99.90
2019-01-08T05:15:47.391Z,99.90
2019-01-08T05:18:18.505Z,99.90
2019-01-08T05:20:48.693Z,99.90
2019-01-08T05:23:18.984Z,99.90
2019-01-08T05:25:49.172Z,99.90
2019-01-08T05:28:19.529Z,99.90
2019-01-08T05:30:49.776Z,99.90
2019-01-08T05:33:20.030Z,99.90
2019-01-08T05:35:50.227Z,99.90
2019-01-08T05:38:20.406Z,99.90
2019-01-08T05:40:50.765Z,99.90
2019-01-08T05:43:21.021Z,99.90
2019-01-08T05:45:51.326Z,99.90
2019-01-08T05:48:21.593Z,99.90
2019-01-08T05:50:52.033Z,99.90
2019-01-08T05:53:22.237Z,99.90
2019-01-08T05:55:52.403Z,99.90
2019-01-08T05:58:22.617Z,99.90
2019-01-08T06:00:52.746Z,99.90
2019-01-08T06:03:22.967Z,99.90
2019-01-08T06:05:53.143Z,99.60
2019-01-08T06:08:23.314Z,98.60
2019-01-08T06:10:53.589Z,99.30
2019-01-08T06:13:23.894Z,99.90
2019-01-08T06:15:54.116Z,99.90
2019-01-08T06:18:24.586Z,99.10
2019-01-08T06:20:54.711Z,97.50
2019-01-08T06:23:24.905Z,98.10
2019-01-08T06:25:55.130Z,97.70
2019-01-08T06:28:25.365Z,97.10
2019-01-08T06:30:55.548Z,99.20
2019-01-08T06:33:25.680Z,99.00
2019-01-08T06:35:56.041Z,99.80
2019-01-08T06:38:26.247Z,99.20
2019-01-08T06:40:57.729Z,98.40
2019-01-08T06:43:28.115Z,96.90
2019-01-08T06:45:58.446Z,99.00
2019-01-08T06:48:28.618Z,98.50
2019-01-08T06:50:58.933Z,99.60
2019-01-08T06:53:29.419Z,99.80
2019-01-08T06:55:59.662Z,99.20
2019-01-08T06:58:29.957Z,97.20
2019-01-08T07:01:00.191Z,97.70
2019-01-08T07:03:30.605Z,95.10
2019-01-08T07:06:00.862Z,98.00
2019-01-08T07:08:31.154Z,99.10
2019-01-08T07:11:01.368Z,97.10
2019-01-08T07:13:31.677Z,96.20
2019-01-08T07:16:01.948Z,97.90
2019-01-08T07:18:32.551Z,97.80
2019-01-08T07:21:02.671Z,99.40
2019-01-08T07:23:33.149Z,97.90
2019-01-08T07:26:03.395Z,99.20
2019-01-08T07:28:33.776Z,99.90
2019-01-08T07:31:03.993Z,99.90
2019-01-08T07:33:34.326Z,99.90
2019-01-08T07:36:04.587Z,99.90
2019-01-08T07:38:34.924Z,99.90
2019-01-08T07:41:05.219Z,99.70
2019-01-08T07:43:35.538Z,99.30
2019-01-08T07:46:05.900Z,98.10
2019-01-08T07:48:36.244Z,98.40
2019-01-08T07:51:06.640Z,98.40
2019-01-08T07:53:36.915Z,99.50
2019-01-08T07:56:07.442Z,99.40
2019-01-08T07:58:37.679Z,99.30
2019-01-08T08:01:08.238Z,99.90
2019-01-08T08:03:38.929Z,99.50
2019-01-08T08:06:09.136Z,99.40
2019-01-08T08:08:39.642Z,97.30
2019-01-08T08:11:09.997Z,98.30
2019-01-08T08:13:40.216Z,99.90
2019-01-08T08:16:10.313Z,98.10
2019-01-08T08:18:40.528Z,98.70
2019-01-08T08:21:10.729Z,99.60
2019-01-08T08:23:40.988Z,99.90
2019-01-08T08:26:11.369Z,99.90
2019-01-08T08:28:41.829Z,99.90
2019-01-08T08:31:12.256Z,99.90
2019-01-08T08:33:42.585Z,99.90
2019-01-08T08:36:12.794Z,99.90
2019-01-08T08:38:42.932Z,99.90
2019-01-08T08:41:13.107Z,99.90
2019-01-08T08:43:43.387Z,99.90
2019-01-08T08:46:13.506Z,99.90
2019-01-08T08:48:43.877Z,99.90
2019-01-08T08:51:14.207Z,99.90
2019-01-08T08:53:52.023Z,99.90
2019-01-08T08:56:16.277Z,99.90
2019-01-08T08:58:46.527Z,99.90
2019-01-08T09:01:16.697Z,99.90
2019-01-08T09:03:47.215Z,99.90
2019-01-08T09:06:17.345Z,99.90
2019-01-08T09:08:47.712Z,99.90
2019-01-08T09:11:17.835Z,99.90
2019-01-08T09:13:48.144Z,99.90
2019-01-08T09:16:18.390Z,99.90
2019-01-08T09:18:48.686Z,99.90
2019-01-08T09:21:18.863Z,99.90
2019-01-08T09:23:49.284Z,99.90
2019-01-08T09:26:19.697Z,99.90
2019-01-08T09:28:49.858Z,99.40
2019-01-08T09:31:20.055Z,98.30
2019-01-08T09:33:50.287Z,99.90
2019-01-08T09:36:20.591Z,99.90
2019-01-08T09:38:50.825Z,99.90
2019-01-08T09:41:21.161Z,99.90
2019-01-08T09:43:51.386Z,99.90
2019-01-08T09:46:21.581Z,99.90
2019-01-08T09:48:51.730Z,99.90
2019-01-08T09:51:21.957Z,99.90
2019-01-08T09:53:52.411Z,99.90
2019-01-08T09:56:22.896Z,99.90
2019-01-08T09:58:53.143Z,99.90
2019-01-08T10:01:24.082Z,99.90
2019-01-08T10:03:54.593Z,99.90
2019-01-08T10:06:24.891Z,99.90
2019-01-08T10:08:55.291Z,99.90
2019-01-08T10:11:25.451Z,99.90
2019-01-08T10:13:57.263Z,99.90
2019-01-08T10:16:27.638Z,99.90
2019-01-08T10:18:57.851Z,99.90
2019-01-08T10:21:28.201Z,99.90
2019-01-08T10:23:58.344Z,99.90
2019-01-08T10:26:28.564Z,99.90
2019-01-08T10:28:58.804Z,99.90
2019-01-08T10:31:32.586Z,99.90
2019-01-08T10:34:00.949Z,99.90
2019-01-08T10:36:31.110Z,99.90
2019-01-08T10:39:01.266Z,97.00
2019-01-08T10:41:31.518Z,94.00
2019-01-08T10:44:01.729Z,96.10
2019-01-08T10:46:37.362Z,94.80
2019-01-08T10:49:04.019Z,97.00
2019-01-08T10:51:34.179Z,96.00
2019-01-08T10:54:04.417Z,92.80
2019-01-08T10:56:34.618Z,94.30
2019-01-08T11:02:35.639Z,96.00
2019-01-08T11:05:06.138Z,99.70
2019-01-08T11:07:36.283Z,99.90
2019-01-08T11:10:09.170Z,99.90
2019-01-08T11:12:39.393Z,99.90
2019-01-08T11:15:15.643Z,99.90
2019-01-08T11:17:45.773Z,99.90
2019-01-08T11:20:55.249Z,99.90
2019-01-08T11:23:26.706Z,99.90
2019-01-08T11:25:56.883Z,99.90
2019-01-08T11:28:27.016Z,99.90
2019-01-08T11:31:12.445Z,99.90
2019-01-08T11:33:42.598Z,99.90
2019-01-08T11:36:18.739Z,99.90
2019-01-08T11:38:48.903Z,99.90
2019-01-08T11:41:19.064Z,99.90
2019-01-08T11:43:49.215Z,99.90
2019-01-08T11:46:19.349Z,99.90
2019-01-08T11:48:49.522Z,99.90
2019-01-08T11:51:19.670Z,99.90
2019-01-08T11:53:49.873Z,99.90
2019-01-08T11:56:23.090Z,99.90
2019-01-08T11:58:53.250Z,99.90
2019-01-08T12:01:23.382Z,99.90
2019-01-08T12:03:53.568Z,99.90
2019-01-08T12:06:42.061Z,99.90
2019-01-08T12:09:12.214Z,99.90
2019-01-08T12:11:42.374Z,99.90
2019-01-08T12:14:19.636Z,99.90
2019-01-08T12:16:49.793Z,99.90
2019-01-08T12:19:19.964Z,99.90
2019-01-08T12:22:24.030Z,99.90
2019-01-08T12:24:54.178Z,99.80
2019-01-08T12:27:24.390Z,98.30
2019-01-08T12:29:54.531Z,98.50
2019-01-08T12:32:30.462Z,98.80
2019-01-08T12:35:00.586Z,97.10
2019-01-08T12:37:30.739Z,97.60
2019-01-08T12:40:00.878Z,98.10
2019-01-08T12:42:31.043Z,99.20
2019-01-08T12:45:01.203Z,99.90
2019-01-08T12:47:37.826Z,98.20
2019-01-08T12:50:09.751Z,97.90
2019-01-08T12:52:39.890Z,96.90
2019-01-08T12:55:10.043Z,97.60
2019-01-08T12:57:40.200Z,97.20
2019-01-08T13:00:11.978Z,98.30
2019-01-08T13:02:42.151Z,97.90
2019-01-08T13:05:12.287Z,97.90
2019-01-08T13:07:42.435Z,96.10
2019-01-08T13:10:12.598Z,95.30
2019-01-08T13:12:44.401Z,93.50
2019-01-08T13:15:14.824Z,94.60
2019-01-08T13:17:45.063Z,93.20
2019-01-08T13:20:15.209Z,93.40
2019-01-08T13:22:45.368Z,94.90
2019-01-08T13:25:15.507Z,93.40
2019-01-08T13:27:45.731Z,93.10
2019-01-08T13:30:16.876Z,93.70
2019-01-08T13:32:47.050Z,93.60
2019-01-08T13:35:17.904Z,93.60
2019-01-08T13:37:48.062Z,93.80
2019-01-08T13:40:18.229Z,93.00
2019-01-08T13:42:48.632Z,88.30
2019-01-08T13:45:18.789Z,86.60
2019-01-08T13:47:48.913Z,82.80
2019-01-08T13:50:19.098Z,78.20
2019-01-08T13:52:49.245Z,73.50
2019-01-08T13:55:19.396Z,72.00
2019-01-08T13:57:49.535Z,73.40
2019-01-08T14:00:19.675Z,73.30
2019-01-08T14:02:49.827Z,71.30
2019-01-08T14:05:20.005Z,68.70
2019-01-08T14:07:50.162Z,69.10
2019-01-08T14:10:20.301Z,68.40
2019-01-08T14:12:51.731Z,68.80
2019-01-08T14:15:21.847Z,66.40
2019-01-08T14:17:52.174Z,66.30
2019-01-08T14:20:22.329Z,66.90
2019-01-08T14:22:52.451Z,66.80
2019-01-08T14:25:24.374Z,66.70
2019-01-08T14:27:54.440Z,65.40
2019-01-08T14:30:24.675Z,65.20
2019-01-08T14:32:54.842Z,64.70
2019-01-08T14:35:24.994Z,63.70
2019-01-08T14:37:55.128Z,64.20
2019-01-08T14:40:25.265Z,64.00
2019-01-08T14:42:57.383Z,64.30
2019-01-08T14:45:35.260Z,63.80
2019-01-08T14:48:05.415Z,64.60
2019-01-08T14:50:35.561Z,65.10
2019-01-08T14:53:05.696Z,63.80
2019-01-08T14:55:36.770Z,64.70
2019-01-08T14:58:06.959Z,63.70
2019-01-08T15:00:37.098Z,64.40
2019-01-08T15:03:09.315Z,65.10
2019-01-08T15:05:42.587Z,65.90
2019-01-08T15:08:12.734Z,65.40
2019-01-08T15:10:48.729Z,66.10
2019-01-08T15:13:18.891Z,66.60
2019-01-08T15:15:54.868Z,67.20
2019-01-08T15:18:36.898Z,66.70
2019-01-08T15:21:07.038Z,66.20
2019-01-08T15:24:04.380Z,68.20
2019-01-08T15:26:42.366Z,67.10
2019-01-08T15:29:12.487Z,67.30
2019-01-08T15:31:43.003Z,67.10
2019-01-08T15:34:13.296Z,68.30
2019-01-08T15:36:43.519Z,68.40
2019-01-08T15:39:13.687Z,68.40
2019-01-08T15:42:01.833Z,69.60
2019-01-08T15:44:32.024Z,70.30
2019-01-08T15:47:02.191Z,71.10
2019-01-08T15:49:32.398Z,71.90
2019-01-08T15:52:02.623Z,73.30
2019-01-08T15:54:32.746Z,73.40
2019-01-08T15:57:02.900Z,71.50
2019-01-08T15:59:33.057Z,70.10
2019-01-08T16:02:03.218Z,70.90
2019-01-08T16:04:39.176Z,69.90
2019-01-08T16:07:16.201Z,68.50
2019-01-08T16:09:48.881Z,69.00
2019-01-08T16:12:19.248Z,67.80
2019-01-08T16:14:58.646Z,67.60
2019-01-08T16:17:28.767Z,68.00
2019-01-08T16:19:58.955Z,68.70
2019-01-08T16:22:29.105Z,67.00
2019-01-08T16:25:15.321Z,67.60
2019-01-08T16:27:53.271Z,68.30
2019-01-08T16:30:26.437Z,68.90
2019-01-08T16:33:02.431Z,69.40
2019-01-08T16:35:45.749Z,67.90
2019-01-08T16:38:17.878Z,66.90
2019-01-08T16:40:49.977Z,66.30
2019-01-08T16:43:22.053Z,66.00
2019-01-08T16:45:58.872Z,66.00
2019-01-08T16:48:29.021Z,64.70
2019-01-08T16:50:59.183Z,64.90
2019-01-08T16:53:29.368Z,66.00
2019-01-08T16:56:02.540Z,66.70
2019-01-08T16:58:44.910Z,67.10
2019-01-08T17:01:15.097Z,70.10
2019-01-08T17:03:46.787Z,75.90
2019-01-08T17:06:16.953Z,86.10
2019-01-08T17:08:47.103Z,92.60
2019-01-08T17:11:17.571Z,96.70
2019-01-08T17:13:47.771Z,98.90
2019-01-08T17:16:18.469Z,99.90
2019-01-08T17:18:48.653Z,99.90
2019-01-08T17:21:18.821Z,99.90
2019-01-08T17:23:49.000Z,99.90
2019-01-08T17:26:19.204Z,99.90
2019-01-08T17:28:53.202Z,99.00
2019-01-08T17:31:23.416Z,94.90
2019-01-08T17:33:59.502Z,92.60
2019-01-08T17:36:31.035Z,92.10
2019-01-08T17:39:01.284Z,92.10
2019-01-08T17:41:33.129Z,89.60
2019-01-08T17:44:04.618Z,86.80
2019-01-08T17:46:34.781Z,83.40
2019-01-08T17:49:06.755Z,82.90
2019-01-08T17:51:38.498Z,81.70
2019-01-08T17:54:08.621Z,85.10
2019-01-08T17:56:40.252Z,86.80
2019-01-08T17:59:12.387Z,88.30
2019-01-08T18:01:48.243Z,88.90
2019-01-08T18:04:19.425Z,91.30
2019-01-08T18:06:49.577Z,83.50
2019-01-08T18:09:19.752Z,82.30
2019-01-08T18:11:49.955Z,82.10
2019-01-08T18:14:25.802Z,84.00
2019-01-08T18:16:55.970Z,84.90
2019-01-08T18:19:26.101Z,86.10
2019-01-08T18:21:56.337Z,88.90
2019-01-08T18:24:26.486Z,86.30
2019-01-08T18:26:56.674Z,88.00
2019-01-08T18:29:26.874Z,87.10
2019-01-08T18:31:58.567Z,82.90
2019-01-08T18:34:30.216Z,80.80
2019-01-08T18:37:07.363Z,80.00
2019-01-08T18:39:37.531Z,80.10
2019-01-08T18:42:08.854Z,79.40
2019-01-08T18:44:38.994Z,79.20
2019-01-08T18:47:09.126Z,78.40
2019-01-08T18:49:39.495Z,77.90
2019-01-08T18:52:09.651Z,76.40
2019-01-08T18:54:39.895Z,77.20
2019-01-08T18:57:10.067Z,77.10
2019-01-08T18:59:40.250Z,77.00
2019-01-08T19:02:10.470Z,77.00
2019-01-08T19:04:40.673Z,74.50
2019-01-08T19:07:10.826Z,73.50
2019-01-08T19:09:41.028Z,72.80
2019-01-08T19:12:11.282Z,72.00
2019-01-08T19:14:41.414Z,72.50
2019-01-08T19:17:12.491Z,72.60
2019-01-08T19:19:43.564Z,71.40
2019-01-08T19:22:13.736Z,71.70
2019-01-08T19:24:43.890Z,72.50
2019-01-08T19:27:14.028Z,74.50
2019-01-08T19:29:44.236Z,75.00
2019-01-08T19:32:14.452Z,76.20
2019-01-08T19:34:44.643Z,75.30
2019-01-08T19:37:23.909Z,75.90
2019-01-08T19:39:54.091Z,73.40
2019-01-08T19:42:24.319Z,72.70
2019-01-08T19:44:55.151Z,70.10
2019-01-08T19:47:25.368Z,68.60
2019-01-08T19:49:58.459Z,67.50
2019-01-08T19:52:29.184Z,67.90
2019-01-08T19:54:59.591Z,67.40
2019-01-08T19:57:32.661Z,69.30
2019-01-08T20:00:02.907Z,70.00
2019-01-08T20:02:36.002Z,67.50
2019-01-08T20:05:06.319Z,67.00
2019-01-08T20:07:37.553Z,67.70
2019-01-08T20:10:07.913Z,68.00
2019-01-08T20:12:41.197Z,66.20
2019-01-08T20:15:14.110Z,65.80
2019-01-08T20:17:44.302Z,66.00
2019-01-08T20:20:14.524Z,65.80
2019-01-08T20:22:44.704Z,66.60
2019-01-08T20:25:14.896Z,67.30
2019-01-08T20:27:45.209Z,68.20
2019-01-08T20:30:15.289Z,68.70
2019-01-08T20:32:45.445Z,68.70
2019-01-08T20:35:16.095Z,68.50
2019-01-08T20:37:47.256Z,70.30
2019-01-08T20:40:17.437Z,70.20
2019-01-08T20:42:52.293Z,71.40
2019-01-08T20:45:24.006Z,71.50
2019-01-08T20:47:54.193Z,72.50
2019-01-08T20:50:24.378Z,73.00
2019-01-08T20:52:58.089Z,74.70
2019-01-08T20:55:29.998Z,73.90
2019-01-08T20:58:00.111Z,73.80
2019-01-08T21:00:38.877Z,73.70
2019-01-08T21:03:14.677Z,73.60
2019-01-08T21:05:44.881Z,72.20
2019-01-08T21:08:15.013Z,69.80
2019-01-08T21:10:49.239Z,69.70
2019-01-08T21:13:19.361Z,68.70
2019-01-08T21:15:49.553Z,68.20
2019-01-08T21:18:19.930Z,68.70
2019-01-08T21:20:51.639Z,67.50
2019-01-08T21:23:27.615Z,68.50
2019-01-08T21:26:00.807Z,68.00
2019-01-08T21:28:35.146Z,68.10
2019-01-08T21:31:11.275Z,69.10
2019-01-08T21:33:41.726Z,69.40
2019-01-08T21:36:11.918Z,69.90
2019-01-08T21:38:42.099Z,69.80
2019-01-08T21:41:13.773Z,70.00
2019-01-08T21:43:44.037Z,70.00
2019-01-08T21:46:14.266Z,69.40
2019-01-08T21:48:44.422Z,69.00
2019-01-08T21:51:15.691Z,68.80
2019-01-08T21:53:45.841Z,70.30
2019-01-08T21:56:19.236Z,69.80
2019-01-08T21:58:49.450Z,69.90
2019-01-08T22:01:19.572Z,70.70
2019-01-08T22:03:49.751Z,70.10
2019-01-08T22:06:19.903Z,69.20
2019-01-08T22:08:50.066Z,68.60
2019-01-08T22:11:22.261Z,68.00
2019-01-08T22:13:54.074Z,67.90
2019-01-08T22:16:24.223Z,66.00
2019-01-08T22:18:55.248Z,65.90
2019-01-08T22:21:25.470Z,65.50
2019-01-08T22:23:55.628Z,64.90
2019-01-08T22:26:25.916Z,65.10
2019-01-08T22:28:56.080Z,65.40
2019-01-08T22:31:26.270Z,66.70
2019-01-08T22:33:57.783Z,66.80
2019-01-08T22:36:27.919Z,67.00
2019-01-08T22:38:59.909Z,67.10
2019-01-08T22:41:30.115Z,68.70
2019-01-08T22:44:00.251Z,70.60
2019-01-08T22:46:30.457Z,72.20
2019-01-08T22:49:01.125Z,74.10
2019-01-08T22:51:31.625Z,75.10
2019-01-08T22:54:01.854Z,75.40
2019-01-08T22:56:32.045Z,76.20
2019-01-08T22:59:02.194Z,74.80
2019-01-08T23:01:37.042Z,72.30
2019-01-08T23:04:08.880Z,71.50
2019-01-08T23:06:39.888Z,70.80
2019-01-08T23:09:10.489Z,70.70
2019-01-08T23:11:40.684Z,70.90
2019-01-08T23:14:31.154Z,71.60
2019-01-08T23:17:01.296Z,72.00
2019-01-08T23:19:31.457Z,72.60
2019-01-08T23:22:01.658Z,73.00
2019-01-08T23:24:31.829Z,74.10
2019-01-08T23:27:01.992Z,74.40
2019-01-08T23:29:33.758Z,75.00
2019-01-08T23:32:18.205Z,74.50
2019-01-08T23:34:48.505Z,74.00
2019-01-08T23:37:18.647Z,72.90
2019-01-08T23:39:48.793Z,72.50
2019-01-08T23:42:18.959Z,72.10
2019-01-08T23:44:49.190Z,71.90
2019-01-08T23:47:22.864Z,72.10
2019-01-08T23:49:52.999Z,72.80
2019-01-08T23:52:27.870Z,74.00
2019-01-08T23:54:59.650Z,74.90
2019-01-08T23:57:31.649Z,76.20
